sensor_id;sensor_type;location;lat;lon;timestamp;pressure;altitude;pressure_sealevel;temperature;humidity
70250;BME280;57644;48.416;-123.374;2022-07-23T00:01:24;101779.85;;;9.20;77.57
70250;BME280;57644;48.416;-123.374;2022-07-23T00:03:54;101781.22;;;9.25;77.34
70250;BME280;57644;48.416;-123.374;2022-07-23T00:06:25;101784.27;;;9.26;77.20
70250;BME280;57644;48.416;-123.374;2022-07-23T00:08:56;101776.71;;;9.15;77.34
70250;BME280;57644;48.416;-123.374;2022-07-23T00:11:26;101780.37;;;9.27;77.05
70250;BME280;57644;48.416;-123.374;2022-07-23T00:13:56;101776.66;;;9.33;76.74
70250;BME280;57644;48.416;-123.374;2022-07-23T00:16:27;101770.77;;;9.24;76.67
70250;BME280;57644;48.416;-123.374;2022-07-23T00:18:57;101765.53;;;9.35;76.45
70250;BME280;57644;48.416;-123.374;2022-07-23T00:21:28;101764.08;;;9.48;76.18
70250;BME280;57644;48.416;-123.374;2022-07-23T00:23:59;101758.76;;;9.48;75.82
70250;BME280;57644;48.416;-123.374;2022-07-23T00:28:59;101744.96;;;9.61;75.06
70250;BME280;57644;48.416;-123.374;2022-07-23T00:31:29;101742.17;;;9.68;74.83
70250;BME280;57644;48.416;-123.374;2022-07-23T00:34:00;101739.53;;;9.59;74.89
70250;BME280;57644;48.416;-123.374;2022-07-23T00:36:31;101743.81;;;9.72;74.64
70250;BME280;57644;48.416;-123.374;2022-07-23T00:39:01;101745.96;;;9.71;74.42
70250;BME280;57644;48.416;-123.374;2022-07-23T00:41:32;101743.90;;;9.74;74.47
70250;BME280;57644;48.416;-123.374;2022-07-23T00:46:33;101740.32;;;9.54;74.64
70250;BME280;57644;48.416;-123.374;2022-07-23T00:49:03;101743.39;;;9.48;74.85
70250;BME280;57644;48.416;-123.374;2022-07-23T00:51:33;101742.61;;;9.37;75.43
70250;BME280;57644;48.416;-123.374;2022-07-23T00:54:03;101741.75;;;9.35;75.31
70250;BME280;57644;48.416;-123.374;2022-07-23T00:56:34;101739.51;;;9.44;75.17
70250;BME280;57644;48.416;-123.374;2022-07-23T00:59:04;101735.66;;;9.34;75.60
70250;BME280;57644;48.416;-123.374;2022-07-23T01:01:35;101736.57;;;9.23;75.83
70250;BME280;57644;48.416;-123.374;2022-07-23T01:04:05;101734.49;;;9.16;76.10
70250;BME280;57644;48.416;-123.374;2022-07-23T01:06:37;101736.31;;;9.17;76.23
70250;BME280;57644;48.416;-123.374;2022-07-23T01:09:07;101731.21;;;9.09;76.48
70250;BME280;57644;48.416;-123.374;2022-07-23T01:11:37;101729.85;;;9.00;76.82
70250;BME280;57644;48.416;-123.374;2022-07-23T01:14:12;101723.05;;;8.96;77.25
70250;BME280;57644;48.416;-123.374;2022-07-23T01:16:37;101719.13;;;8.95;77.35
70250;BME280;57644;48.416;-123.374;2022-07-23T01:19:07;101714.89;;;9.00;77.20
70250;BME280;57644;48.416;-123.374;2022-07-23T01:21:39;101717.45;;;8.95;77.23
70250;BME280;57644;48.416;-123.374;2022-07-23T01:24:09;101714.76;;;9.03;77.01
70250;BME280;57644;48.416;-123.374;2022-07-23T01:26:41;101719.82;;;8.98;77.06
70250;BME280;57644;48.416;-123.374;2022-07-23T01:29:08;101718.60;;;8.92;77.35
70250;BME280;57644;48.416;-123.374;2022-07-23T01:31:39;101717.66;;;8.86;77.55
70250;BME280;57644;48.416;-123.374;2022-07-23T01:34:09;101714.39;;;8.81;77.75
70250;BME280;57644;48.416;-123.374;2022-07-23T01:36:40;101720.63;;;8.77;77.74
70250;BME280;57644;48.416;-123.374;2022-07-23T01:39:09;101718.41;;;8.61;78.59
70250;BME280;57644;48.416;-123.374;2022-07-23T01:41:40;101717.44;;;8.70;78.34
70250;BME280;57644;48.416;-123.374;2022-07-23T01:44:10;101720.28;;;8.61;78.65
70250;BME280;57644;48.416;-123.374;2022-07-23T01:46:40;101721.59;;;8.65;78.42
70250;BME280;57644;48.416;-123.374;2022-07-23T01:49:12;101721.80;;;8.73;78.04
70250;BME280;57644;48.416;-123.374;2022-07-23T01:51:42;101721.70;;;8.76;77.84
70250;BME280;57644;48.416;-123.374;2022-07-23T01:54:12;101719.97;;;8.64;78.31
70250;BME280;57644;48.416;-123.374;2022-07-23T01:56:43;101721.59;;;8.46;78.94
70250;BME280;57644;48.416;-123.374;2022-07-23T01:59:13;101722.21;;;8.64;78.38
70250;BME280;57644;48.416;-123.374;2022-07-23T02:01:44;101721.84;;;8.57;78.45
70250;BME280;57644;48.416;-123.374;2022-07-23T02:04:14;101721.11;;;8.55;78.43
70250;BME280;57644;48.416;-123.374;2022-07-23T02:06:45;101723.66;;;8.56;78.34
70250;BME280;57644;48.416;-123.374;2022-07-23T02:09:15;101725.74;;;8.54;78.29
70250;BME280;57644;48.416;-123.374;2022-07-23T02:11:45;101722.81;;;8.52;78.33
70250;BME280;57644;48.416;-123.374;2022-07-23T02:14:15;101721.75;;;8.59;78.03
70250;BME280;57644;48.416;-123.374;2022-07-23T02:16:46;101721.96;;;8.48;78.39
70250;BME280;57644;48.416;-123.374;2022-07-23T02:19:16;101721.15;;;8.38;78.48
70250;BME280;57644;48.416;-123.374;2022-07-23T02:21:47;101720.05;;;8.35;78.44
70250;BME280;57644;48.416;-123.374;2022-07-23T02:24:17;101719.91;;;8.37;78.29
70250;BME280;57644;48.416;-123.374;2022-07-23T02:26:47;101718.95;;;8.43;77.79
70250;BME280;57644;48.416;-123.374;2022-07-23T02:29:17;101716.92;;;8.34;78.11
70250;BME280;57644;48.416;-123.374;2022-07-23T02:31:48;101719.22;;;8.22;78.37
70250;BME280;57644;48.416;-123.374;2022-07-23T02:34:18;101724.91;;;7.86;79.44
70250;BME280;57644;48.416;-123.374;2022-07-23T02:36:49;101723.59;;;7.89;79.30
70250;BME280;57644;48.416;-123.374;2022-07-23T02:39:19;101721.64;;;7.95;79.12
70250;BME280;57644;48.416;-123.374;2022-07-23T02:41:50;101726.96;;;7.96;79.19
70250;BME280;57644;48.416;-123.374;2022-07-23T02:44:20;101722.14;;;8.02;78.75
70250;BME280;57644;48.416;-123.374;2022-07-23T02:46:50;101720.69;;;7.99;78.74
70250;BME280;57644;48.416;-123.374;2022-07-23T02:49:21;101726.40;;;7.98;78.60
70250;BME280;57644;48.416;-123.374;2022-07-23T02:51:51;101733.16;;;7.81;79.36
70250;BME280;57644;48.416;-123.374;2022-07-23T02:54:21;101737.42;;;7.57;79.99
70250;BME280;57644;48.416;-123.374;2022-07-23T02:56:52;101741.66;;;7.77;79.32
70250;BME280;57644;48.416;-123.374;2022-07-23T02:59:21;101743.34;;;7.65;79.90
70250;BME280;57644;48.416;-123.374;2022-07-23T03:01:52;101745.15;;;7.74;79.26
70250;BME280;57644;48.416;-123.374;2022-07-23T03:04:22;101748.57;;;7.67;79.78
70250;BME280;57644;48.416;-123.374;2022-07-23T03:06:52;101750.55;;;7.57;80.19
70250;BME280;57644;48.416;-123.374;2022-07-23T03:09:23;101752.97;;;7.64;79.92
70250;BME280;57644;48.416;-123.374;2022-07-23T03:11:53;101754.06;;;7.66;79.96
70250;BME280;57644;48.416;-123.374;2022-07-23T03:14:23;101751.35;;;7.73;79.58
70250;BME280;57644;48.416;-123.374;2022-07-23T03:16:55;101753.08;;;7.78;79.39
70250;BME280;57644;48.416;-123.374;2022-07-23T03:19:24;101751.96;;;7.68;79.88
70250;BME280;57644;48.416;-123.374;2022-07-23T03:21:55;101751.12;;;7.75;79.57
70250;BME280;57644;48.416;-123.374;2022-07-23T03:24:26;101752.60;;;7.66;79.93
70250;BME280;57644;48.416;-123.374;2022-07-23T03:26:56;101752.47;;;7.66;80.06
70250;BME280;57644;48.416;-123.374;2022-07-23T03:29:26;101754.09;;;7.51;80.68
70250;BME280;57644;48.416;-123.374;2022-07-23T03:31:57;101757.38;;;7.56;80.28
70250;BME280;57644;48.416;-123.374;2022-07-23T03:34:27;101760.06;;;7.44;80.77
70250;BME280;57644;48.416;-123.374;2022-07-23T03:36:57;101758.89;;;7.42;80.74
70250;BME280;57644;48.416;-123.374;2022-07-23T03:39:28;101755.70;;;7.32;81.12
70250;BME280;57644;48.416;-123.374;2022-07-23T03:41:58;101753.13;;;7.35;81.01
70250;BME280;57644;48.416;-123.374;2022-07-23T03:44:28;101750.89;;;7.27;81.21
70250;BME280;57644;48.416;-123.374;2022-07-23T03:46:58;101756.54;;;7.15;81.64
70250;BME280;57644;48.416;-123.374;2022-07-23T03:49:29;101760.07;;;7.15;81.69
70250;BME280;57644;48.416;-123.374;2022-07-23T03:51:59;101765.73;;;7.03;82.28
70250;BME280;57644;48.416;-123.374;2022-07-23T03:54:30;101768.71;;;6.98;82.46
70250;BME280;57644;48.416;-123.374;2022-07-23T03:57:00;101767.39;;;7.13;81.77
70250;BME280;57644;48.416;-123.374;2022-07-23T03:59:30;101770.26;;;7.05;82.17
70250;BME280;57644;48.416;-123.374;2022-07-23T04:02:00;101775.03;;;7.03;82.17
70250;BME280;57644;48.416;-123.374;2022-07-23T04:04:32;101781.02;;;7.05;81.98
70250;BME280;57644;48.416;-123.374;2022-07-23T04:07:02;101784.03;;;6.98;82.51
70250;BME280;57644;48.416;-123.374;2022-07-23T04:09:32;101788.08;;;6.95;82.50
70250;BME280;57644;48.416;-123.374;2022-07-23T04:12:02;101790.08;;;6.92;82.63
70250;BME280;57644;48.416;-123.374;2022-07-23T04:14:32;101793.59;;;6.81;83.28
70250;BME280;57644;48.416;-123.374;2022-07-23T04:17:03;101796.52;;;6.80;83.31
70250;BME280;57644;48.416;-123.374;2022-07-23T04:19:33;101797.30;;;6.81;83.40
70250;BME280;57644;48.416;-123.374;2022-07-23T04:22:04;101792.74;;;6.79;83.49
70250;BME280;57644;48.416;-123.374;2022-07-23T04:24:34;101795.89;;;6.78;83.60
70250;BME280;57644;48.416;-123.374;2022-07-23T04:27:05;101795.51;;;6.75;83.75
70250;BME280;57644;48.416;-123.374;2022-07-23T04:29:34;101795.90;;;6.81;83.57
70250;BME280;57644;48.416;-123.374;2022-07-23T04:32:05;101795.77;;;6.64;84.30
70250;BME280;57644;48.416;-123.374;2022-07-23T04:34:36;101795.56;;;6.77;83.72
70250;BME280;57644;48.416;-123.374;2022-07-23T04:37:05;101794.74;;;6.82;83.62
70250;BME280;57644;48.416;-123.374;2022-07-23T04:39:36;101796.61;;;6.78;83.82
70250;BME280;57644;48.416;-123.374;2022-07-23T04:42:08;101792.85;;;6.69;84.21
70250;BME280;57644;48.416;-123.374;2022-07-23T04:44:36;101794.35;;;6.64;84.53
70250;BME280;57644;48.416;-123.374;2022-07-23T04:47:07;101797.19;;;6.63;84.62
70250;BME280;57644;48.416;-123.374;2022-07-23T04:49:37;101805.42;;;6.69;84.39
70250;BME280;57644;48.416;-123.374;2022-07-23T04:52:07;101803.83;;;6.71;84.19
70250;BME280;57644;48.416;-123.374;2022-07-23T04:54:38;101801.17;;;6.66;84.41
70250;BME280;57644;48.416;-123.374;2022-07-23T04:57:08;101796.50;;;6.53;85.00
70250;BME280;57644;48.416;-123.374;2022-07-23T04:59:39;101799.41;;;6.49;85.36
70250;BME280;57644;48.416;-123.374;2022-07-23T05:02:10;101797.27;;;6.33;86.12
70250;BME280;57644;48.416;-123.374;2022-07-23T05:04:40;101798.96;;;6.46;85.60
70250;BME280;57644;48.416;-123.374;2022-07-23T05:07:10;101806.38;;;6.50;85.46
70250;BME280;57644;48.416;-123.374;2022-07-23T05:09:40;101806.02;;;6.53;85.36
70250;BME280;57644;48.416;-123.374;2022-07-23T05:12:10;101811.36;;;6.56;85.08
70250;BME280;57644;48.416;-123.374;2022-07-23T05:14:41;101812.16;;;6.64;84.82
70250;BME280;57644;48.416;-123.374;2022-07-23T05:17:11;101812.07;;;6.67;84.69
70250;BME280;57644;48.416;-123.374;2022-07-23T05:19:42;101810.06;;;6.61;84.98
70250;BME280;57644;48.416;-123.374;2022-07-23T05:22:12;101817.03;;;6.41;85.99
70250;BME280;57644;48.416;-123.374;2022-07-23T05:24:43;101814.64;;;6.38;86.03
70250;BME280;57644;48.416;-123.374;2022-07-23T05:27:12;101815.18;;;6.43;86.01
70250;BME280;57644;48.416;-123.374;2022-07-23T05:29:43;101812.67;;;6.34;86.07
70250;BME280;57644;48.416;-123.374;2022-07-23T05:32:13;101811.26;;;6.37;86.08
70250;BME280;57644;48.416;-123.374;2022-07-23T05:34:44;101809.77;;;6.39;85.82
70250;BME280;57644;48.416;-123.374;2022-07-23T05:37:14;101811.24;;;6.43;85.89
70250;BME280;57644;48.416;-123.374;2022-07-23T05:39:44;101818.00;;;6.38;86.25
70250;BME280;57644;48.416;-123.374;2022-07-23T05:42:16;101819.92;;;6.44;85.84
70250;BME280;57644;48.416;-123.374;2022-07-23T05:44:46;101823.49;;;6.46;85.55
70250;BME280;57644;48.416;-123.374;2022-07-23T05:47:16;101828.30;;;6.43;85.44
70250;BME280;57644;48.416;-123.374;2022-07-23T05:49:46;101830.51;;;6.46;85.39
70250;BME280;57644;48.416;-123.374;2022-07-23T05:52:16;101831.17;;;6.47;85.27
70250;BME280;57644;48.416;-123.374;2022-07-23T05:54:47;101833.85;;;6.50;85.01
70250;BME280;57644;48.416;-123.374;2022-07-23T05:57:17;101835.01;;;6.40;85.57
70250;BME280;57644;48.416;-123.374;2022-07-23T05:59:48;101840.71;;;6.32;85.92
70250;BME280;57644;48.416;-123.374;2022-07-23T06:02:18;101836.56;;;6.34;85.60
70250;BME280;57644;48.416;-123.374;2022-07-23T06:04:48;101839.17;;;6.29;85.91
70250;BME280;57644;48.416;-123.374;2022-07-23T06:07:19;101841.30;;;6.32;85.49
70250;BME280;57644;48.416;-123.374;2022-07-23T06:09:49;101843.47;;;6.29;85.61
70250;BME280;57644;48.416;-123.374;2022-07-23T06:12:20;101844.57;;;6.19;86.13
70250;BME280;57644;48.416;-123.374;2022-07-23T06:14:49;101842.55;;;6.30;85.78
70250;BME280;57644;48.416;-123.374;2022-07-23T06:17:20;101842.70;;;6.33;85.50
70250;BME280;57644;48.416;-123.374;2022-07-23T06:19:51;101841.37;;;6.32;85.30
70250;BME280;57644;48.416;-123.374;2022-07-23T06:22:21;101840.38;;;6.28;85.74
70250;BME280;57644;48.416;-123.374;2022-07-23T06:24:51;101837.38;;;6.22;85.80
70250;BME280;57644;48.416;-123.374;2022-07-23T06:27:21;101839.77;;;6.24;85.67
70250;BME280;57644;48.416;-123.374;2022-07-23T06:29:52;101840.40;;;6.24;85.81
70250;BME280;57644;48.416;-123.374;2022-07-23T06:32:22;101836.77;;;6.22;85.85
70250;BME280;57644;48.416;-123.374;2022-07-23T06:34:53;101840.29;;;6.21;85.93
70250;BME280;57644;48.416;-123.374;2022-07-23T06:37:23;101844.52;;;6.17;86.15
70250;BME280;57644;48.416;-123.374;2022-07-23T06:39:53;101850.59;;;6.22;85.77
70250;BME280;57644;48.416;-123.374;2022-07-23T06:42:24;101856.13;;;6.30;85.30
70250;BME280;57644;48.416;-123.374;2022-07-23T06:44:54;101855.80;;;6.20;85.90
70250;BME280;57644;48.416;-123.374;2022-07-23T06:47:25;101851.33;;;6.18;85.93
70250;BME280;57644;48.416;-123.374;2022-07-23T06:49:55;101849.13;;;6.21;85.73
70250;BME280;57644;48.416;-123.374;2022-07-23T06:52:25;101852.69;;;6.22;85.96
70250;BME280;57644;48.416;-123.374;2022-07-23T06:54:56;101857.91;;;6.23;85.67
70250;BME280;57644;48.416;-123.374;2022-07-23T06:57:26;101856.81;;;6.29;85.68
70250;BME280;57644;48.416;-123.374;2022-07-23T06:59:56;101854.38;;;6.32;85.16
70250;BME280;57644;48.416;-123.374;2022-07-23T07:02:27;101856.34;;;6.24;85.77
70250;BME280;57644;48.416;-123.374;2022-07-23T07:04:57;101860.99;;;6.27;85.50
70250;BME280;57644;48.416;-123.374;2022-07-23T07:07:28;101861.32;;;6.28;85.41
70250;BME280;57644;48.416;-123.374;2022-07-23T07:09:58;101862.43;;;6.17;85.98
70250;BME280;57644;48.416;-123.374;2022-07-23T07:12:29;101862.72;;;6.29;85.42
70250;BME280;57644;48.416;-123.374;2022-07-23T07:14:59;101867.66;;;6.32;85.48
70250;BME280;57644;48.416;-123.374;2022-07-23T07:17:29;101870.21;;;6.36;85.07
70250;BME280;57644;48.416;-123.374;2022-07-23T07:20:00;101868.44;;;6.35;85.17
70250;BME280;57644;48.416;-123.374;2022-07-23T07:22:31;101866.79;;;6.41;84.86
70250;BME280;57644;48.416;-123.374;2022-07-23T07:25:00;101862.47;;;6.42;84.60
70250;BME280;57644;48.416;-123.374;2022-07-23T07:27:30;101863.45;;;6.44;84.66
70250;BME280;57644;48.416;-123.374;2022-07-23T07:30:01;101863.44;;;6.42;84.62
70250;BME280;57644;48.416;-123.374;2022-07-23T07:32:32;101866.16;;;6.45;84.41
70250;BME280;57644;48.416;-123.374;2022-07-23T07:35:03;101865.51;;;6.46;84.35
70250;BME280;57644;48.416;-123.374;2022-07-23T07:37:32;101865.60;;;6.39;84.58
70250;BME280;57644;48.416;-123.374;2022-07-23T07:40:03;101864.00;;;6.41;84.58
70250;BME280;57644;48.416;-123.374;2022-07-23T07:42:33;101865.42;;;6.45;84.15
70250;BME280;57644;48.416;-123.374;2022-07-23T07:45:03;101868.86;;;6.45;84.48
70250;BME280;57644;48.416;-123.374;2022-07-23T07:47:33;101871.58;;;6.41;84.78
70250;BME280;57644;48.416;-123.374;2022-07-23T07:50:05;101870.38;;;6.47;84.28
70250;BME280;57644;48.416;-123.374;2022-07-23T07:52:34;101871.39;;;6.46;84.29
70250;BME280;57644;48.416;-123.374;2022-07-23T07:55:06;101868.69;;;6.42;84.49
70250;BME280;57644;48.416;-123.374;2022-07-23T07:57:35;101868.63;;;6.43;84.33
70250;BME280;57644;48.416;-123.374;2022-07-23T08:00:07;101870.20;;;6.44;84.30
70250;BME280;57644;48.416;-123.374;2022-07-23T08:02:41;101868.80;;;6.46;84.02
70250;BME280;57644;48.416;-123.374;2022-07-23T08:05:06;101866.44;;;6.47;83.92
70250;BME280;57644;48.416;-123.374;2022-07-23T08:07:36;101868.56;;;6.45;84.20
70250;BME280;57644;48.416;-123.374;2022-07-23T08:10:08;101874.81;;;6.43;84.33
70250;BME280;57644;48.416;-123.374;2022-07-23T08:12:44;101877.01;;;6.47;84.19
70250;BME280;57644;48.416;-123.374;2022-07-23T08:15:08;101877.66;;;6.44;84.53
70250;BME280;57644;48.416;-123.374;2022-07-23T08:17:38;101880.18;;;6.48;84.12
70250;BME280;57644;48.416;-123.374;2022-07-23T08:20:10;101882.70;;;6.43;84.46
70250;BME280;57644;48.416;-123.374;2022-07-23T08:22:43;101877.91;;;6.40;84.45
70250;BME280;57644;48.416;-123.374;2022-07-23T08:25:09;101878.43;;;6.40;84.46
70250;BME280;57644;48.416;-123.374;2022-07-23T08:27:39;101885.07;;;6.33;84.96
70250;BME280;57644;48.416;-123.374;2022-07-23T08:30:11;101881.02;;;6.40;84.47
70250;BME280;57644;48.416;-123.374;2022-07-23T08:35:11;101881.05;;;6.41;84.47
70250;BME280;57644;48.416;-123.374;2022-07-23T08:37:41;101874.22;;;6.39;84.35
70250;BME280;57644;48.416;-123.374;2022-07-23T08:40:12;101872.82;;;6.36;84.81
70250;BME280;57644;48.416;-123.374;2022-07-23T08:42:41;101874.78;;;6.38;84.63
70250;BME280;57644;48.416;-123.374;2022-07-23T08:45:12;101877.62;;;6.34;84.89
70250;BME280;57644;48.416;-123.374;2022-07-23T08:47:42;101880.89;;;6.28;85.40
70250;BME280;57644;48.416;-123.374;2022-07-23T08:50:13;101883.03;;;6.30;84.89
70250;BME280;57644;48.416;-123.374;2022-07-23T08:52:43;101883.57;;;6.26;85.09
70250;BME280;57644;48.416;-123.374;2022-07-23T08:55:13;101882.57;;;6.29;84.71
70250;BME280;57644;48.416;-123.374;2022-07-23T08:57:44;101875.52;;;6.33;84.48
70250;BME280;57644;48.416;-123.374;2022-07-23T09:00:15;101881.29;;;6.32;84.53
70250;BME280;57644;48.416;-123.374;2022-07-23T09:02:46;101892.27;;;6.21;85.24
70250;BME280;57644;48.416;-123.374;2022-07-23T09:05:15;101889.81;;;6.15;85.72
70250;BME280;57644;48.416;-123.374;2022-07-23T09:10:16;101890.42;;;6.20;85.31
70250;BME280;57644;48.416;-123.374;2022-07-23T09:12:46;101888.42;;;6.21;85.10
70250;BME280;57644;48.416;-123.374;2022-07-23T09:15:17;101889.86;;;6.19;85.30
70250;BME280;57644;48.416;-123.374;2022-07-23T09:17:47;101891.74;;;6.19;85.43
70250;BME280;57644;48.416;-123.374;2022-07-23T09:20:18;101894.15;;;6.17;85.28
70250;BME280;57644;48.416;-123.374;2022-07-23T09:22:48;101894.24;;;6.19;85.34
70250;BME280;57644;48.416;-123.374;2022-07-23T09:25:19;101890.32;;;6.15;85.79
70250;BME280;57644;48.416;-123.374;2022-07-23T09:27:52;101887.63;;;6.20;85.42
70250;BME280;57644;48.416;-123.374;2022-07-23T09:30:19;101881.44;;;6.22;85.16
70250;BME280;57644;48.416;-123.374;2022-07-23T09:35:19;101889.42;;;6.11;85.97
70250;BME280;57644;48.416;-123.374;2022-07-23T09:40:20;101894.98;;;6.12;85.85
70250;BME280;57644;48.416;-123.374;2022-07-23T09:42:55;101891.24;;;6.09;86.10
70250;BME280;57644;48.416;-123.374;2022-07-23T09:45:22;101889.02;;;6.14;85.45
70250;BME280;57644;48.416;-123.374;2022-07-23T09:47:56;101890.31;;;6.07;86.13
70250;BME280;57644;48.416;-123.374;2022-07-23T09:50:22;101890.35;;;6.12;85.53
70250;BME280;57644;48.416;-123.374;2022-07-23T09:52:53;101886.61;;;6.03;86.45
70250;BME280;57644;48.416;-123.374;2022-07-23T09:55:31;101887.61;;;5.97;86.63
70250;BME280;57644;48.416;-123.374;2022-07-23T09:57:53;101888.24;;;5.92;87.08
70250;BME280;57644;48.416;-123.374;2022-07-23T10:00:23;101886.46;;;5.96;86.84
70250;BME280;57644;48.416;-123.374;2022-07-23T10:02:54;101887.38;;;5.93;87.01
70250;BME280;57644;48.416;-123.374;2022-07-23T10:05:25;101883.05;;;5.91;87.22
70250;BME280;57644;48.416;-123.374;2022-07-23T10:07:55;101879.28;;;5.97;86.86
70250;BME280;57644;48.416;-123.374;2022-07-23T10:10:27;101881.36;;;5.96;87.00
70250;BME280;57644;48.416;-123.374;2022-07-23T10:12:56;101881.62;;;5.97;86.99
70250;BME280;57644;48.416;-123.374;2022-07-23T10:15:26;101881.74;;;6.04;86.70
70250;BME280;57644;48.416;-123.374;2022-07-23T10:17:57;101884.38;;;6.02;86.61
70250;BME280;57644;48.416;-123.374;2022-07-23T10:20:27;101886.34;;;6.02;86.62
70250;BME280;57644;48.416;-123.374;2022-07-23T10:23:04;101891.62;;;6.00;86.93
70250;BME280;57644;48.416;-123.374;2022-07-23T10:25:32;101892.65;;;5.89;87.50
70250;BME280;57644;48.416;-123.374;2022-07-23T10:30:34;101894.86;;;5.87;87.51
70250;BME280;57644;48.416;-123.374;2022-07-23T10:35:36;101895.91;;;5.92;87.45
70250;BME280;57644;48.416;-123.374;2022-07-23T10:38:07;101895.82;;;5.95;87.13
70250;BME280;57644;48.416;-123.374;2022-07-23T10:40:31;101895.39;;;5.97;86.88
70250;BME280;57644;48.416;-123.374;2022-07-23T10:43:01;101898.32;;;5.98;87.28
70250;BME280;57644;48.416;-123.374;2022-07-23T10:45:32;101900.39;;;5.96;87.16
70250;BME280;57644;48.416;-123.374;2022-07-23T10:48:20;101900.54;;;5.96;87.30
70250;BME280;57644;48.416;-123.374;2022-07-23T10:50:31;101898.90;;;5.96;86.90
70250;BME280;57644;48.416;-123.374;2022-07-23T10:53:11;101900.40;;;5.96;86.99
70250;BME280;57644;48.416;-123.374;2022-07-23T10:55:41;101900.21;;;5.97;86.80
70250;BME280;57644;48.416;-123.374;2022-07-23T10:58:04;101903.13;;;5.94;87.12
70250;BME280;57644;48.416;-123.374;2022-07-23T11:00:35;101904.27;;;5.89;87.57
70250;BME280;57644;48.416;-123.374;2022-07-23T11:03:27;101902.64;;;5.87;87.66
70250;BME280;57644;48.416;-123.374;2022-07-23T11:05:40;101903.22;;;5.92;87.08
70250;BME280;57644;48.416;-123.374;2022-07-23T11:08:10;101906.17;;;5.93;87.44
70250;BME280;57644;48.416;-123.374;2022-07-23T11:10:37;101908.69;;;5.95;86.88
70250;BME280;57644;48.416;-123.374;2022-07-23T11:18:06;101913.37;;;6.05;86.81
70250;BME280;57644;48.416;-123.374;2022-07-23T11:20:36;101911.45;;;6.02;87.60
70250;BME280;57644;48.416;-123.374;2022-07-23T11:23:07;101913.94;;;5.98;87.71
70250;BME280;57644;48.416;-123.374;2022-07-23T11:25:37;101912.96;;;5.93;88.01
70250;BME280;57644;48.416;-123.374;2022-07-23T11:28:14;101914.76;;;6.01;87.53
70250;BME280;57644;48.416;-123.374;2022-07-23T11:30:41;101909.28;;;6.01;87.29
70250;BME280;57644;48.416;-123.374;2022-07-23T11:35:41;101912.03;;;6.01;87.42
70250;BME280;57644;48.416;-123.374;2022-07-23T11:38:14;101921.97;;;5.97;87.72
70250;BME280;57644;48.416;-123.374;2022-07-23T11:40:40;101920.50;;;6.00;87.48
70250;BME280;57644;48.416;-123.374;2022-07-23T11:43:11;101922.44;;;5.99;87.99
70250;BME280;57644;48.416;-123.374;2022-07-23T11:45:43;101922.55;;;6.04;87.45
70250;BME280;57644;48.416;-123.374;2022-07-23T11:48:17;101924.14;;;6.00;87.94
70250;BME280;57644;48.416;-123.374;2022-07-23T11:50:41;101924.15;;;6.00;87.93
70250;BME280;57644;48.416;-123.374;2022-07-23T11:53:12;101920.28;;;6.05;87.40
70250;BME280;57644;48.416;-123.374;2022-07-23T11:55:42;101919.21;;;6.08;87.36
70250;BME280;57644;48.416;-123.374;2022-07-23T12:00:43;101918.03;;;6.17;86.56
70250;BME280;57644;48.416;-123.374;2022-07-23T12:03:13;101916.80;;;6.16;87.04
70250;BME280;57644;48.416;-123.374;2022-07-23T12:05:43;101918.80;;;6.13;86.99
70250;BME280;57644;48.416;-123.374;2022-07-23T12:08:14;101923.21;;;6.09;87.30
70250;BME280;57644;48.416;-123.374;2022-07-23T12:10:45;101924.50;;;6.08;87.30
70250;BME280;57644;48.416;-123.374;2022-07-23T12:13:17;101925.63;;;6.06;87.20
70250;BME280;57644;48.416;-123.374;2022-07-23T12:15:47;101931.57;;;5.97;88.17
70250;BME280;57644;48.416;-123.374;2022-07-23T12:18:19;101931.98;;;5.96;87.85
70250;BME280;57644;48.416;-123.374;2022-07-23T12:20:48;101931.05;;;6.00;87.24
70250;BME280;57644;48.416;-123.374;2022-07-23T12:23:19;101931.05;;;6.00;87.45
70250;BME280;57644;48.416;-123.374;2022-07-23T12:25:48;101932.84;;;6.03;87.46
70250;BME280;57644;48.416;-123.374;2022-07-23T12:28:18;101936.28;;;6.04;87.61
70250;BME280;57644;48.416;-123.374;2022-07-23T12:30:48;101940.05;;;6.03;87.68
70250;BME280;57644;48.416;-123.374;2022-07-23T12:33:24;101941.33;;;6.06;87.36
70250;BME280;57644;48.416;-123.374;2022-07-23T12:35:48;101937.59;;;6.03;87.79
70250;BME280;57644;48.416;-123.374;2022-07-23T12:38:20;101939.93;;;6.06;87.50
70250;BME280;57644;48.416;-123.374;2022-07-23T12:40:50;101940.79;;;6.05;87.33
70250;BME280;57644;48.416;-123.374;2022-07-23T12:43:23;101937.66;;;6.04;87.26
70250;BME280;57644;48.416;-123.374;2022-07-23T12:45:51;101934.31;;;5.94;88.14
70250;BME280;57644;48.416;-123.374;2022-07-23T12:48:23;101939.72;;;5.98;87.83
70250;BME280;57644;48.416;-123.374;2022-07-23T12:50:54;101938.54;;;6.07;87.24
70250;BME280;57644;48.416;-123.374;2022-07-23T12:53:24;101945.02;;;6.15;86.62
70250;BME280;57644;48.416;-123.374;2022-07-23T12:55:57;101948.32;;;6.12;87.25
70250;BME280;57644;48.416;-123.374;2022-07-23T12:58:22;101946.99;;;6.09;87.80
70250;BME280;57644;48.416;-123.374;2022-07-23T13:00:57;101950.81;;;6.07;87.66
70250;BME280;57644;48.416;-123.374;2022-07-23T13:03:26;101953.08;;;6.11;88.07
70250;BME280;57644;48.416;-123.374;2022-07-23T13:05:54;101958.68;;;6.09;87.80
70250;BME280;57644;48.416;-123.374;2022-07-23T13:08:24;101963.00;;;6.07;88.17
70250;BME280;57644;48.416;-123.374;2022-07-23T13:10:54;101965.39;;;6.10;87.93
70250;BME280;57644;48.416;-123.374;2022-07-23T13:13:29;101964.58;;;6.09;88.41
70250;BME280;57644;48.416;-123.374;2022-07-23T13:15:55;101964.10;;;6.10;88.21